sensor_id;sensor_type;location;lat;lon;timestamp;P1;durP1;ratioP1;P2;durP2;ratioP2
6017;SDS011;3037;51.068;13.780;2022-11-03T00:01:30;8.63;;;4.67;;
6017;SDS011;3037;51.068;13.780;2022-11-03T00:04:03;11.10;;;4.50;;
6017;SDS011;3037;51.068;13.780;2022-11-03T00:06:29;12.30;;;4.80;;
6017;SDS011;3037;51.068;13.780;2022-11-03T00:08:58;7.53;;;4.33;;
6017;SDS011;3037;51.068;13.780;2022-11-03T00:11:25;11.53;;;4.53;;
6017;SDS011;3037;51.068;13.780;2022-11-03T00:13:51;8.43;;;4.53;;
6017;SDS011;3037;51.068;13.780;2022-11-03T00:16:17;7.70;;;5.13;;
6017;SDS011;3037;51.068;13.780;2022-11-03T00:18:43;5.10;;;4.60;;
6017;SDS011;3037;51.068;13.780;2022-11-03T00:21:09;4.77;;;4.27;;
6017;SDS011;3037;51.068;13.780;2022-11-03T00:23:37;11.23;;;5.37;;
6017;SDS011;3037;51.068;13.780;2022-11-03T00:26:11;4.80;;;4.03;;
6017;SDS011;3037;51.068;13.780;2022-11-03T00:28:42;8.73;;;4.40;;
6017;SDS011;3037;51.068;13.780;2022-11-03T00:31:10;11.63;;;6.20;;
6017;SDS011;3037;51.068;13.780;2022-11-03T00:33:41;11.00;;;5.00;;
6017;SDS011;3037;51.068;13.780;2022-11-03T00:36:08;15.63;;;5.40;;
6017;SDS011;3037;51.068;13.780;2022-11-03T00:38:36;9.23;;;4.67;;
6017;SDS011;3037;51.068;13.780;2022-11-03T00:41:02;14.73;;;5.67;;
6017;SDS011;3037;51.068;13.780;2022-11-03T00:43:29;6.47;;;4.20;;
6017;SDS011;3037;51.068;13.780;2022-11-03T00:45:56;11.10;;;4.47;;
6017;SDS011;3037;51.068;13.780;2022-11-03T00:48:22;15.87;;;5.40;;
6017;SDS011;3037;51.068;13.780;2022-11-03T00:53:40;8.50;;;4.60;;
6017;SDS011;3037;51.068;13.780;2022-11-03T00:56:18;15.53;;;5.30;;
6017;SDS011;3037;51.068;13.780;2022-11-03T00:58:46;7.30;;;5.53;;
6017;SDS011;3037;51.068;13.780;2022-11-03T01:01:17;10.53;;;5.00;;
6017;SDS011;3037;51.068;13.780;2022-11-03T01:03:46;7.03;;;4.60;;
6017;SDS011;3037;51.068;13.780;2022-11-03T01:06:32;16.73;;;4.57;;
6017;SDS011;3037;51.068;13.780;2022-11-03T01:09:14;6.37;;;4.30;;
6017;SDS011;3037;51.068;13.780;2022-11-03T01:11:49;12.30;;;5.40;;
6017;SDS011;3037;51.068;13.780;2022-11-03T01:14:18;6.93;;;4.27;;
6017;SDS011;3037;51.068;13.780;2022-11-03T01:16:44;10.93;;;4.03;;
6017;SDS011;3037;51.068;13.780;2022-11-03T01:19:09;14.13;;;5.00;;
6017;SDS011;3037;51.068;13.780;2022-11-03T01:21:35;8.23;;;4.60;;
6017;SDS011;3037;51.068;13.780;2022-11-03T01:24:01;14.00;;;4.87;;
6017;SDS011;3037;51.068;13.780;2022-11-03T01:26:27;8.47;;;5.20;;
6017;SDS011;3037;51.068;13.780;2022-11-03T01:28:53;13.20;;;4.80;;
6017;SDS011;3037;51.068;13.780;2022-11-03T01:31:20;6.03;;;4.67;;
6017;SDS011;3037;51.068;13.780;2022-11-03T01:33:48;5.70;;;5.13;;
6017;SDS011;3037;51.068;13.780;2022-11-03T01:36:15;11.43;;;5.70;;
6017;SDS011;3037;51.068;13.780;2022-11-03T01:38:41;13.50;;;5.70;;
6017;SDS011;3037;51.068;13.780;2022-11-03T01:41:09;10.77;;;5.03;;
6017;SDS011;3037;51.068;13.780;2022-11-03T01:43:38;10.93;;;5.50;;
6017;SDS011;3037;51.068;13.780;2022-11-03T01:46:11;7.50;;;4.97;;
6017;SDS011;3037;51.068;13.780;2022-11-03T01:48:44;7.57;;;4.57;;
6017;SDS011;3037;51.068;13.780;2022-11-03T01:51:13;7.73;;;4.77;;
6017;SDS011;3037;51.068;13.780;2022-11-03T01:53:43;9.93;;;4.67;;
6017;SDS011;3037;51.068;13.780;2022-11-03T01:56:11;11.20;;;5.60;;
6017;SDS011;3037;51.068;13.780;2022-11-03T01:58:38;11.47;;;5.20;;
6017;SDS011;3037;51.068;13.780;2022-11-03T02:01:06;8.90;;;4.37;;
6017;SDS011;3037;51.068;13.780;2022-11-03T02:03:33;15.83;;;4.03;;
6017;SDS011;3037;51.068;13.780;2022-11-03T02:06:02;11.93;;;4.83;;
6017;SDS011;3037;51.068;13.780;2022-11-03T02:11:07;8.77;;;4.70;;
6017;SDS011;3037;51.068;13.780;2022-11-03T02:13:51;12.93;;;4.40;;
6017;SDS011;3037;51.068;13.780;2022-11-03T02:16:17;6.07;;;4.83;;
6017;SDS011;3037;51.068;13.780;2022-11-03T02:18:44;10.70;;;5.20;;
6017;SDS011;3037;51.068;13.780;2022-11-03T02:24:08;6.67;;;4.23;;
6017;SDS011;3037;51.068;13.780;2022-11-03T02:26:56;6.87;;;4.80;;
6017;SDS011;3037;51.068;13.780;2022-11-03T02:29:22;5.50;;;4.23;;
6017;SDS011;3037;51.068;13.780;2022-11-03T02:31:48;11.10;;;5.40;;
6017;SDS011;3037;51.068;13.780;2022-11-03T02:34:26;13.30;;;5.93;;
6017;SDS011;3037;51.068;13.780;2022-11-03T02:39:40;9.73;;;4.47;;
6017;SDS011;3037;51.068;13.780;2022-11-03T02:42:10;11.83;;;5.00;;
6017;SDS011;3037;51.068;13.780;2022-11-03T02:44:38;12.97;;;4.90;;
6017;SDS011;3037;51.068;13.780;2022-11-03T02:47:06;11.57;;;4.57;;
6017;SDS011;3037;51.068;13.780;2022-11-03T02:49:38;11.10;;;5.60;;
6017;SDS011;3037;51.068;13.780;2022-11-03T02:55:02;12.00;;;4.37;;
6017;SDS011;3037;51.068;13.780;2022-11-03T02:57:33;17.17;;;6.00;;
6017;SDS011;3037;51.068;13.780;2022-11-03T03:00:04;14.50;;;5.90;;
6017;SDS011;3037;51.068;13.780;2022-11-03T03:02:33;22.87;;;5.80;;
6017;SDS011;3037;51.068;13.780;2022-11-03T03:05:05;7.80;;;5.13;;
6017;SDS011;3037;51.068;13.780;2022-11-03T03:07:38;7.50;;;5.53;;
6017;SDS011;3037;51.068;13.780;2022-11-03T03:10:11;11.33;;;5.50;;
6017;SDS011;3037;51.068;13.780;2022-11-03T03:12:42;8.30;;;5.20;;
6017;SDS011;3037;51.068;13.780;2022-11-03T03:15:12;13.83;;;5.17;;
6017;SDS011;3037;51.068;13.780;2022-11-03T03:20:31;7.97;;;5.23;;
6017;SDS011;3037;51.068;13.780;2022-11-03T03:25:42;13.50;;;5.90;;
6017;SDS011;3037;51.068;13.780;2022-11-03T03:28:14;10.97;;;5.80;;
6017;SDS011;3037;51.068;13.780;2022-11-03T03:30:43;9.93;;;5.87;;
6017;SDS011;3037;51.068;13.780;2022-11-03T03:33:10;9.30;;;4.60;;
6017;SDS011;3037;51.068;13.780;2022-11-03T03:35:37;12.37;;;6.20;;
6017;SDS011;3037;51.068;13.780;2022-11-03T03:38:07;8.47;;;5.50;;
6017;SDS011;3037;51.068;13.780;2022-11-03T03:40:37;15.70;;;6.00;;
6017;SDS011;3037;51.068;13.780;2022-11-03T03:43:08;14.70;;;5.10;;
6017;SDS011;3037;51.068;13.780;2022-11-03T03:45:36;14.77;;;6.03;;
6017;SDS011;3037;51.068;13.780;2022-11-03T03:48:03;28.93;;;6.47;;
6017;SDS011;3037;51.068;13.780;2022-11-03T03:50:30;13.87;;;6.30;;
6017;SDS011;3037;51.068;13.780;2022-11-03T03:53:00;7.63;;;5.20;;
6017;SDS011;3037;51.068;13.780;2022-11-03T03:55:37;11.30;;;4.90;;
6017;SDS011;3037;51.068;13.780;2022-11-03T03:58:06;8.47;;;5.47;;
6017;SDS011;3037;51.068;13.780;2022-11-03T04:00:36;14.43;;;5.53;;
6017;SDS011;3037;51.068;13.780;2022-11-03T04:03:04;9.07;;;5.97;;
6017;SDS011;3037;51.068;13.780;2022-11-03T04:05:30;7.90;;;4.90;;
6017;SDS011;3037;51.068;13.780;2022-11-03T04:07:56;15.53;;;6.60;;
6017;SDS011;3037;51.068;13.780;2022-11-03T04:10:22;9.67;;;5.67;;
6017;SDS011;3037;51.068;13.780;2022-11-03T04:12:48;17.17;;;5.80;;
6017;SDS011;3037;51.068;13.780;2022-11-03T04:15:34;10.63;;;4.83;;
6017;SDS011;3037;51.068;13.780;2022-11-03T04:18:26;12.67;;;5.30;;
6017;SDS011;3037;51.068;13.780;2022-11-03T04:21:11;9.73;;;5.10;;
6017;SDS011;3037;51.068;13.780;2022-11-03T04:23:56;12.17;;;4.90;;
6017;SDS011;3037;51.068;13.780;2022-11-03T04:26:25;14.10;;;5.30;;
6017;SDS011;3037;51.068;13.780;2022-11-03T04:28:51;8.50;;;4.40;;
6017;SDS011;3037;51.068;13.780;2022-11-03T04:31:18;14.83;;;5.27;;
6017;SDS011;3037;51.068;13.780;2022-11-03T04:33:45;13.90;;;4.70;;
6017;SDS011;3037;51.068;13.780;2022-11-03T04:36:14;12.70;;;5.47;;
6017;SDS011;3037;51.068;13.780;2022-11-03T04:38:45;9.93;;;4.13;;
6017;SDS011;3037;51.068;13.780;2022-11-03T04:41:13;7.30;;;3.83;;
6017;SDS011;3037;51.068;13.780;2022-11-03T04:43:41;9.23;;;4.60;;
6017;SDS011;3037;51.068;13.780;2022-11-03T04:46:09;9.00;;;4.43;;
6017;SDS011;3037;51.068;13.780;2022-11-03T04:48:36;7.00;;;5.00;;
6017;SDS011;3037;51.068;13.780;2022-11-03T04:51:08;13.77;;;5.87;;
6017;SDS011;3037;51.068;13.780;2022-11-03T04:53:41;12.40;;;5.77;;
6017;SDS011;3037;51.068;13.780;2022-11-03T04:56:12;14.33;;;6.80;;
6017;SDS011;3037;51.068;13.780;2022-11-03T04:58:41;12.27;;;6.00;;
6017;SDS011;3037;51.068;13.780;2022-11-03T05:01:09;8.90;;;6.80;;
6017;SDS011;3037;51.068;13.780;2022-11-03T05:03:37;9.10;;;6.60;;
6017;SDS011;3037;51.068;13.780;2022-11-03T05:06:09;12.50;;;6.33;;
6017;SDS011;3037;51.068;13.780;2022-11-03T05:08:35;11.50;;;6.43;;
6017;SDS011;3037;51.068;13.780;2022-11-03T05:11:03;13.13;;;6.07;;
6017;SDS011;3037;51.068;13.780;2022-11-03T05:13:45;11.10;;;5.67;;
6017;SDS011;3037;51.068;13.780;2022-11-03T05:16:11;9.17;;;5.47;;
6017;SDS011;3037;51.068;13.780;2022-11-03T05:18:38;17.57;;;5.13;;
6017;SDS011;3037;51.068;13.780;2022-11-03T05:21:07;8.63;;;4.97;;
6017;SDS011;3037;51.068;13.780;2022-11-03T05:23:37;13.53;;;4.43;;
6017;SDS011;3037;51.068;13.780;2022-11-03T05:26:13;8.73;;;4.30;;
6017;SDS011;3037;51.068;13.780;2022-11-03T05:28:46;9.67;;;5.17;;
6017;SDS011;3037;51.068;13.780;2022-11-03T05:31:20;16.80;;;4.87;;
6017;SDS011;3037;51.068;13.780;2022-11-03T05:33:48;12.80;;;5.63;;
6017;SDS011;3037;51.068;13.780;2022-11-03T05:36:18;10.07;;;5.10;;
6017;SDS011;3037;51.068;13.780;2022-11-03T05:38:46;5.00;;;4.40;;
6017;SDS011;3037;51.068;13.780;2022-11-03T05:41:21;9.30;;;4.67;;
6017;SDS011;3037;51.068;13.780;2022-11-03T05:43:51;11.83;;;5.93;;
6017;SDS011;3037;51.068;13.780;2022-11-03T05:46:20;18.77;;;5.03;;
6017;SDS011;3037;51.068;13.780;2022-11-03T05:48:46;10.17;;;6.80;;
6017;SDS011;3037;51.068;13.780;2022-11-03T05:51:28;9.10;;;5.47;;
6017;SDS011;3037;51.068;13.780;2022-11-03T05:53:59;12.40;;;5.70;;
6017;SDS011;3037;51.068;13.780;2022-11-03T05:56:29;16.13;;;6.20;;
6017;SDS011;3037;51.068;13.780;2022-11-03T05:58:57;13.50;;;6.00;;
6017;SDS011;3037;51.068;13.780;2022-11-03T06:01:29;14.93;;;6.73;;
6017;SDS011;3037;51.068;13.780;2022-11-03T06:04:03;11.33;;;5.23;;
6017;SDS011;3037;51.068;13.780;2022-11-03T06:06:45;8.37;;;6.20;;
6017;SDS011;3037;51.068;13.780;2022-11-03T06:09:27;12.57;;;6.23;;
6017;SDS011;3037;51.068;13.780;2022-11-03T06:11:56;16.47;;;5.70;;
6017;SDS011;3037;51.068;13.780;2022-11-03T06:14:25;11.93;;;5.77;;
6017;SDS011;3037;51.068;13.780;2022-11-03T06:16:55;10.30;;;5.50;;
6017;SDS011;3037;51.068;13.780;2022-11-03T06:19:33;9.03;;;5.40;;
6017;SDS011;3037;51.068;13.780;2022-11-03T06:22:07;15.13;;;8.00;;
6017;SDS011;3037;51.068;13.780;2022-11-03T06:25:13;9.73;;;6.00;;
6017;SDS011;3037;51.068;13.780;2022-11-03T06:27:47;9.80;;;5.90;;
6017;SDS011;3037;51.068;13.780;2022-11-03T06:32:53;17.13;;;7.73;;
6017;SDS011;3037;51.068;13.780;2022-11-03T06:35:23;8.97;;;6.00;;
6017;SDS011;3037;51.068;13.780;2022-11-03T06:37:49;12.20;;;6.70;;
6017;SDS011;3037;51.068;13.780;2022-11-03T06:40:27;12.83;;;7.47;;
6017;SDS011;3037;51.068;13.780;2022-11-03T06:42:57;11.73;;;6.47;;
6017;SDS011;3037;51.068;13.780;2022-11-03T06:45:23;20.50;;;6.83;;
6017;SDS011;3037;51.068;13.780;2022-11-03T06:47:53;9.63;;;5.87;;
6017;SDS011;3037;51.068;13.780;2022-11-03T06:50:29;5.63;;;5.03;;
6017;SDS011;3037;51.068;13.780;2022-11-03T06:52:57;14.13;;;6.20;;
6017;SDS011;3037;51.068;13.780;2022-11-03T06:55:56;16.90;;;6.43;;
6017;SDS011;3037;51.068;13.780;2022-11-03T07:01:01;12.57;;;7.00;;
6017;SDS011;3037;51.068;13.780;2022-11-03T07:03:33;23.53;;;7.60;;
6017;SDS011;3037;51.068;13.780;2022-11-03T07:08:52;12.10;;;5.70;;
6017;SDS011;3037;51.068;13.780;2022-11-03T07:11:31;11.93;;;6.10;;
6017;SDS011;3037;51.068;13.780;2022-11-03T07:14:09;11.97;;;6.67;;
6017;SDS011;3037;51.068;13.780;2022-11-03T07:16:40;10.47;;;5.60;;
6017;SDS011;3037;51.068;13.780;2022-11-03T07:19:12;8.67;;;5.53;;
6017;SDS011;3037;51.068;13.780;2022-11-03T07:21:48;16.83;;;6.77;;
6017;SDS011;3037;51.068;13.780;2022-11-03T07:24:26;6.30;;;4.50;;
6017;SDS011;3037;51.068;13.780;2022-11-03T07:29:57;9.43;;;3.70;;
6017;SDS011;3037;51.068;13.780;2022-11-03T07:32:27;14.10;;;4.40;;
6017;SDS011;3037;51.068;13.780;2022-11-03T07:35:38;9.03;;;3.70;;
6017;SDS011;3037;51.068;13.780;2022-11-03T07:37:44;10.67;;;3.87;;
6017;SDS011;3037;51.068;13.780;2022-11-03T07:40:21;8.53;;;4.23;;
6017;SDS011;3037;51.068;13.780;2022-11-03T07:42:49;10.53;;;2.60;;
6017;SDS011;3037;51.068;13.780;2022-11-03T07:45:32;14.23;;;3.83;;
6017;SDS011;3037;51.068;13.780;2022-11-03T07:48:13;6.67;;;3.40;;
6017;SDS011;3037;51.068;13.780;2022-11-03T07:50:42;10.33;;;3.40;;
6017;SDS011;3037;51.068;13.780;2022-11-03T07:53:10;6.13;;;3.30;;
6017;SDS011;3037;51.068;13.780;2022-11-03T07:55:40;7.93;;;3.50;;
6017;SDS011;3037;51.068;13.780;2022-11-03T07:58:28;10.10;;;3.73;;
6017;SDS011;3037;51.068;13.780;2022-11-03T08:01:04;8.40;;;2.70;;
6017;SDS011;3037;51.068;13.780;2022-11-03T08:03:46;7.03;;;3.07;;
6017;SDS011;3037;51.068;13.780;2022-11-03T08:06:12;8.00;;;3.13;;
6017;SDS011;3037;51.068;13.780;2022-11-03T08:08:38;6.50;;;3.20;;
6017;SDS011;3037;51.068;13.780;2022-11-03T08:11:04;13.83;;;3.03;;
6017;SDS011;3037;51.068;13.780;2022-11-03T08:13:29;6.73;;;3.30;;
6017;SDS011;3037;51.068;13.780;2022-11-03T08:15:55;5.23;;;2.93;;
6017;SDS011;3037;51.068;13.780;2022-11-03T08:18:22;4.43;;;2.70;;
6017;SDS011;3037;51.068;13.780;2022-11-03T08:20:47;10.10;;;3.07;;
6017;SDS011;3037;51.068;13.780;2022-11-03T08:23:13;10.83;;;3.20;;
6017;SDS011;3037;51.068;13.780;2022-11-03T08:25:38;7.03;;;2.70;;
6017;SDS011;3037;51.068;13.780;2022-11-03T08:28:04;9.57;;;3.33;;
6017;SDS011;3037;51.068;13.780;2022-11-03T08:30:30;5.10;;;2.70;;
6017;SDS011;3037;51.068;13.780;2022-11-03T08:32:57;11.27;;;2.10;;
6017;SDS011;3037;51.068;13.780;2022-11-03T08:35:23;6.00;;;2.83;;
6017;SDS011;3037;51.068;13.780;2022-11-03T08:37:49;11.33;;;3.40;;
6017;SDS011;3037;51.068;13.780;2022-11-03T08:40:14;4.10;;;2.30;;
6017;SDS011;3037;51.068;13.780;2022-11-03T08:42:40;12.27;;;2.97;;
6017;SDS011;3037;51.068;13.780;2022-11-03T08:45:05;7.43;;;2.80;;
6017;SDS011;3037;51.068;13.780;2022-11-03T08:47:31;4.53;;;2.80;;
6017;SDS011;3037;51.068;13.780;2022-11-03T08:49:57;6.50;;;2.87;;
6017;SDS011;3037;51.068;13.780;2022-11-03T08:52:22;12.53;;;2.93;;
6017;SDS011;3037;51.068;13.780;2022-11-03T08:54:48;7.23;;;2.63;;
6017;SDS011;3037;51.068;13.780;2022-11-03T08:57:13;5.80;;;2.67;;
6017;SDS011;3037;51.068;13.780;2022-11-03T08:59:39;9.37;;;3.10;;
6017;SDS011;3037;51.068;13.780;2022-11-03T09:02:05;11.57;;;3.00;;
6017;SDS011;3037;51.068;13.780;2022-11-03T09:04:31;7.50;;;2.60;;
6017;SDS011;3037;51.068;13.780;2022-11-03T09:06:56;6.07;;;2.73;;
6017;SDS011;3037;51.068;13.780;2022-11-03T09:09:22;7.50;;;3.10;;
6017;SDS011;3037;51.068;13.780;2022-11-03T09:11:47;10.50;;;2.40;;
6017;SDS011;3037;51.068;13.780;2022-11-03T09:14:13;13.37;;;3.00;;
6017;SDS011;3037;51.068;13.780;2022-11-03T09:16:38;5.57;;;2.70;;
6017;SDS011;3037;51.068;13.780;2022-11-03T09:19:04;6.53;;;2.43;;
6017;SDS011;3037;51.068;13.780;2022-11-03T09:21:30;3.73;;;2.13;;
6017;SDS011;3037;51.068;13.780;2022-11-03T09:23:55;5.50;;;3.60;;
6017;SDS011;3037;51.068;13.780;2022-11-03T09:26:23;5.07;;;2.30;;
6017;SDS011;3037;51.068;13.780;2022-11-03T09:28:49;6.70;;;2.90;;
6017;SDS011;3037;51.068;13.780;2022-11-03T09:31:15;4.87;;;2.70;;
6017;SDS011;3037;51.068;13.780;2022-11-03T09:33:41;5.67;;;3.03;;
6017;SDS011;3037;51.068;13.780;2022-11-03T09:36:07;2.80;;;2.60;;
6017;SDS011;3037;51.068;13.780;2022-11-03T09:38:33;5.47;;;2.40;;
6017;SDS011;3037;51.068;13.780;2022-11-03T09:40:58;6.57;;;2.93;;
6017;SDS011;3037;51.068;13.780;2022-11-03T09:43:25;5.40;;;2.70;;
6017;SDS011;3037;51.068;13.780;2022-11-03T09:45:50;4.03;;;2.80;;
6017;SDS011;3037;51.068;13.780;2022-11-03T09:48:17;7.83;;;3.07;;
6017;SDS011;3037;51.068;13.780;2022-11-03T09:50:44;5.23;;;2.37;;
6017;SDS011;3037;51.068;13.780;2022-11-03T09:53:13;4.00;;;2.53;;
6017;SDS011;3037;51.068;13.780;2022-11-03T09:55:39;4.30;;;2.63;;
6017;SDS011;3037;51.068;13.780;2022-11-03T09:58:15;4.93;;;2.47;;
6017;SDS011;3037;51.068;13.780;2022-11-03T10:00:41;5.60;;;2.77;;
6017;SDS011;3037;51.068;13.780;2022-11-03T10:03:11;11.80;;;3.30;;
6017;SDS011;3037;51.068;13.780;2022-11-03T10:05:38;6.00;;;3.00;;
6017;SDS011;3037;51.068;13.780;2022-11-03T10:08:06;10.73;;;3.13;;
6017;SDS011;3037;51.068;13.780;2022-11-03T10:10:36;6.40;;;2.97;;
6017;SDS011;3037;51.068;13.780;2022-11-03T10:13:03;10.40;;;2.80;;
6017;SDS011;3037;51.068;13.780;2022-11-03T10:15:32;7.13;;;3.80;;
6017;SDS011;3037;51.068;13.780;2022-11-03T10:17:59;5.17;;;2.57;;
6017;SDS011;3037;51.068;13.780;2022-11-03T10:20:27;6.87;;;2.90;;
6017;SDS011;3037;51.068;13.780;2022-11-03T10:22:53;6.23;;;2.70;;
6017;SDS011;3037;51.068;13.780;2022-11-03T10:28:23;7.27;;;2.80;;
6017;SDS011;3037;51.068;13.780;2022-11-03T10:33:28;9.93;;;3.07;;
6017;SDS011;3037;51.068;13.780;2022-11-03T10:36:04;4.50;;;2.80;;
6017;SDS011;3037;51.068;13.780;2022-11-03T10:38:50;8.60;;;2.43;;
6017;SDS011;3037;51.068;13.780;2022-11-03T10:44:30;10.57;;;2.77;;
6017;SDS011;3037;51.068;13.780;2022-11-03T10:49:24;4.43;;;2.30;;
6017;SDS011;3037;51.068;13.780;2022-11-03T10:51:53;11.37;;;3.00;;
6017;SDS011;3037;51.068;13.780;2022-11-03T10:54:21;3.03;;;2.17;;
6017;SDS011;3037;51.068;13.780;2022-11-03T10:56:48;2.97;;;1.90;;
6017;SDS011;3037;51.068;13.780;2022-11-03T10:59:23;3.27;;;2.17;;
6017;SDS011;3037;51.068;13.780;2022-11-03T11:01:56;11.13;;;3.23;;
6017;SDS011;3037;51.068;13.780;2022-11-03T11:04:22;11.23;;;3.63;;
6017;SDS011;3037;51.068;13.780;2022-11-03T11:06:48;7.20;;;2.07;;
6017;SDS011;3037;51.068;13.780;2022-11-03T11:09:21;5.60;;;2.70;;
6017;SDS011;3037;51.068;13.780;2022-11-03T11:11:58;6.27;;;3.30;;
6017;SDS011;3037;51.068;13.780;2022-11-03T11:15:00;6.37;;;2.43;;
6017;SDS011;3037;51.068;13.780;2022-11-03T11:17:38;3.47;;;2.40;;
6017;SDS011;3037;51.068;13.780;2022-11-03T11:22:45;9.10;;;3.43;;
6017;SDS011;3037;51.068;13.780;2022-11-03T11:25:11;7.77;;;2.50;;
6017;SDS011;3037;51.068;13.780;2022-11-03T11:30:07;9.97;;;2.93;;
6017;SDS011;3037;51.068;13.780;2022-11-03T11:33:11;5.27;;;2.83;;
6017;SDS011;3037;51.068;13.780;2022-11-03T11:36:01;3.23;;;2.13;;
6017;SDS011;3037;51.068;13.780;2022-11-03T11:38:52;8.67;;;2.57;;
6017;SDS011;3037;51.068;13.780;2022-11-03T11:47:23;6.00;;;2.77;;
6017;SDS011;3037;51.068;13.780;2022-11-03T11:52:52;4.63;;;2.63;;
6017;SDS011;3037;51.068;13.780;2022-11-03T11:57:51;6.93;;;2.60;;
6017;SDS011;3037;51.068;13.780;2022-11-03T12:00:18;6.20;;;2.47;;
6017;SDS011;3037;51.068;13.780;2022-11-03T12:03:02;9.50;;;3.93;;
6017;SDS011;3037;51.068;13.780;2022-11-03T12:05:33;6.43;;;3.00;;
6017;SDS011;3037;51.068;13.780;2022-11-03T12:08:00;4.00;;;2.60;;
6017;SDS011;3037;51.068;13.780;2022-11-03T12:10:27;5.10;;;2.50;;
6017;SDS011;3037;51.068;13.780;2022-11-03T12:12:55;12.30;;;2.50;;
6017;SDS011;3037;51.068;13.780;2022-11-03T12:18:32;6.77;;;3.00;;
6017;SDS011;3037;51.068;13.780;2022-11-03T12:21:05;5.10;;;2.83;;
6017;SDS011;3037;51.068;13.780;2022-11-03T12:26:05;14.73;;;3.10;;
6017;SDS011;3037;51.068;13.780;2022-11-03T12:28:41;7.30;;;2.97;;
6017;SDS011;3037;51.068;13.780;2022-11-03T12:31:07;10.03;;;4.37;;
6017;SDS011;3037;51.068;13.780;2022-11-03T12:33:32;12.10;;;3.87;;
6017;SDS011;3037;51.068;13.780;2022-11-03T12:35:58;7.83;;;3.60;;
6017;SDS011;3037;51.068;13.780;2022-11-03T12:38:23;10.73;;;3.70;;
6017;SDS011;3037;51.068;13.780;2022-11-03T12:40:49;8.37;;;3.20;;
6017;SDS011;3037;51.068;13.780;2022-11-03T12:43:15;3.17;;;2.97;;
6017;SDS011;3037;51.068;13.780;2022-11-03T12:45:41;8.03;;;3.93;;
6017;SDS011;3037;51.068;13.780;2022-11-03T12:48:07;10.70;;;4.50;;
6017;SDS011;3037;51.068;13.780;2022-11-03T12:50:33;6.97;;;4.30;;
6017;SDS011;3037;51.068;13.780;2022-11-03T12:53:01;3.40;;;3.10;;
6017;SDS011;3037;51.068;13.780;2022-11-03T12:55:27;7.90;;;3.37;;
6017;SDS011;3037;51.068;13.780;2022-11-03T12:57:53;10.00;;;3.80;;
6017;SDS011;3037;51.068;13.780;2022-11-03T13:00:18;8.23;;;4.87;;
6017;SDS011;3037;51.068;13.780;2022-11-03T13:02:44;8.87;;;3.90;;
6017;SDS011;3037;51.068;13.780;2022-11-03T13:05:09;7.30;;;4.77;;
6017;SDS011;3037;51.068;13.780;2022-11-03T13:07:39;7.70;;;4.53;;
6017;SDS011;3037;51.068;13.780;2022-11-03T13:10:05;5.37;;;4.50;;
6017;SDS011;3037;51.068;13.780;2022-11-03T13:12:31;13.10;;;4.70;;
6017;SDS011;3037;51.068;13.780;2022-11-03T13:14:57;8.60;;;3.83;;
6017;SDS011;3037;51.068;13.780;2022-11-03T13:17:25;8.60;;;4.30;;
6017;SDS011;3037;51.068;13.780;2022-11-03T13:19:51;6.97;;;4.67;;
6017;SDS011;3037;51.068;13.780;2022-11-03T13:22:17;10.10;;;4.73;;
6017;SDS011;3037;51.068;13.780;2022-11-03T13:24:42;11.00;;;4.60;;
6017;SDS011;3037;51.068;13.780;2022-11-03T13:27:08;7.33;;;4.37;;
6017;SDS011;3037;51.068;13.780;2022-11-03T13:29:33;5.87;;;4.07;;
6017;SDS011;3037;51.068;13.780;2022-11-03T13:32:00;9.93;;;4.80;;
6017;SDS011;3037;51.068;13.780;2022-11-03T13:34:27;11.33;;;4.27;;
6017;SDS011;3037;51.068;13.780;2022-11-03T13:36:53;5.80;;;4.03;;
6017;SDS011;3037;51.068;13.780;2022-11-03T13:39:19;8.30;;;4.17;;
6017;SDS011;3037;51.068;13.780;2022-11-03T13:41:45;7.30;;;4.40;;
6017;SDS011;3037;51.068;13.780;2022-11-03T13:44:11;4.33;;;3.93;;
6017;SDS011;3037;51.068;13.780;2022-11-03T13:46:36;7.63;;;4.20;;
6017;SDS011;3037;51.068;13.780;2022-11-03T13:49:02;10.73;;;5.07;;
6017;SDS011;3037;51.068;13.780;2022-11-03T13:51:28;7.03;;;4.43;;
6017;SDS011;3037;51.068;13.780;2022-11-03T13:53:53;9.00;;;4.40;;
6017;SDS011;3037;51.068;13.780;2022-11-03T13:56:19;9.30;;;5.03;;
6017;SDS011;3037;51.068;13.780;2022-11-03T13:58:44;15.13;;;4.70;;
6017;SDS011;3037;51.068;13.780;2022-11-03T14:01:10;14.53;;;4.93;;
6017;SDS011;3037;51.068;13.780;2022-11-03T14:03:35;10.03;;;4.87;;
6017;SDS011;3037;51.068;13.780;2022-11-03T14:06:01;7.27;;;4.17;;
6017;SDS011;3037;51.068;13.780;2022-11-03T14:08:27;14.00;;;5.07;;
6017;SDS011;3037;51.068;13.780;2022-11-03T14:10:52;9.27;;;4.90;;
6017;SDS011;3037;51.068;13.780;2022-11-03T14:13:19;10.40;;;5.27;;
6017;SDS011;3037;51.068;13.780;2022-11-03T14:15:45;11.00;;;4.63;;
6017;SDS011;3037;51.068;13.780;2022-11-03T14:18:10;8.43;;;5.13;;
6017;SDS011;3037;51.068;13.780;2022-11-03T14:20:36;9.70;;;5.70;;
6017;SDS011;3037;51.068;13.780;2022-11-03T14:23:01;14.47;;;5.63;;
6017;SDS011;3037;51.068;13.780;2022-11-03T14:25:27;8.43;;;4.53;;
6017;SDS011;3037;51.068;13.780;2022-11-03T14:27:53;5.97;;;4.47;;
6017;SDS011;3037;51.068;13.780;2022-11-03T14:30:18;17.70;;;6.00;;
6017;SDS011;3037;51.068;13.780;2022-11-03T14:32:44;15.37;;;5.70;;
6017;SDS011;3037;51.068;13.780;2022-11-03T14:35:09;9.43;;;5.57;;
6017;SDS011;3037;51.068;13.780;2022-11-03T14:37:35;10.17;;;5.40;;
6017;SDS011;3037;51.068;13.780;2022-11-03T14:40:00;8.03;;;5.67;;
6017;SDS011;3037;51.068;13.780;2022-11-03T14:42:26;15.33;;;5.97;;
6017;SDS011;3037;51.068;13.780;2022-11-03T14:44:52;7.93;;;5.40;;
6017;SDS011;3037;51.068;13.780;2022-11-03T14:47:18;9.73;;;5.90;;
6017;SDS011;3037;51.068;13.780;2022-11-03T14:49:45;10.10;;;7.37;;
6017;SDS011;3037;51.068;13.780;2022-11-03T14:52:11;10.53;;;6.77;;
6017;SDS011;3037;51.068;13.780;2022-11-03T14:54:37;13.67;;;6.67;;
6017;SDS011;3037;51.068;13.780;2022-11-03T14:57:03;11.37;;;6.40;;
6017;SDS011;3037;51.068;13.780;2022-11-03T14:59:29;16.30;;;6.57;;
6017;SDS011;3037;51.068;13.780;2022-11-03T15:01:55;15.37;;;7.20;;
6017;SDS011;3037;51.068;13.780;2022-11-03T15:04:21;8.30;;;6.43;;
6017;SDS011;3037;51.068;13.780;2022-11-03T15:06:47;10.23;;;6.73;;
6017;SDS011;3037;51.068;13.780;2022-11-03T15:09:13;14.87;;;6.70;;
6017;SDS011;3037;51.068;13.780;2022-11-03T15:11:40;10.60;;;7.20;;
6017;SDS011;3037;51.068;13.780;2022-11-03T15:14:06;23.83;;;7.70;;
6017;SDS011;3037;51.068;13.780;2022-11-03T15:16:32;9.47;;;5.93;;
6017;SDS011;3037;51.068;13.780;2022-11-03T15:19:00;20.63;;;7.10;;
6017;SDS011;3037;51.068;13.780;2022-11-03T15:21:27;17.57;;;6.90;;
6017;SDS011;3037;51.068;13.780;2022-11-03T15:23:53;9.07;;;6.50;;
6017;SDS011;3037;51.068;13.780;2022-11-03T15:26:18;14.40;;;6.70;;
6017;SDS011;3037;51.068;13.780;2022-11-03T15:28:44;11.77;;;6.50;;
6017;SDS011;3037;51.068;13.780;2022-11-03T15:31:10;12.07;;;6.00;;
6017;SDS011;3037;51.068;13.780;2022-11-03T15:33:35;18.13;;;7.40;;
6017;SDS011;3037;51.068;13.780;2022-11-03T15:36:01;13.67;;;7.10;;
6017;SDS011;3037;51.068;13.780;2022-11-03T15:38:28;16.60;;;7.03;;
6017;SDS011;3037;51.068;13.780;2022-11-03T15:40:54;15.50;;;7.37;;
6017;SDS011;3037;51.068;13.780;2022-11-03T15:43:39;13.20;;;6.50;;
6017;SDS011;3037;51.068;13.780;2022-11-03T15:46:08;13.87;;;9.03;;
6017;SDS011;3037;51.068;13.780;2022-11-03T15:48:35;12.07;;;6.67;;
6017;SDS011;3037;51.068;13.780;2022-11-03T15:51:00;8.60;;;5.50;;
6017;SDS011;3037;51.068;13.780;2022-11-03T15:53:26;15.73;;;5.87;;
6017;SDS011;3037;51.068;13.780;2022-11-03T15:55:52;13.03;;;6.30;;
6017;SDS011;3037;51.068;13.780;2022-11-03T15:58:17;9.70;;;6.20;;
6017;SDS011;3037;51.068;13.780;2022-11-03T16:00:43;18.50;;;6.37;;
6017;SDS011;3037;51.068;13.780;2022-11-03T16:03:08;9.57;;;4.73;;
6017;SDS011;3037;51.068;13.780;2022-11-03T16:05:34;9.77;;;5.60;;
6017;SDS011;3037;51.068;13.780;2022-11-03T16:07:59;5.90;;;4.70;;
6017;SDS011;3037;51.068;13.780;2022-11-03T16:10:25;18.07;;;5.90;;
6017;SDS011;3037;51.068;13.780;2022-11-03T16:12:51;15.97;;;5.70;;